createdAt,value
2023-03-01T00:04:53.575Z,93.00
2023-03-01T00:09:55.860Z,93.20
2023-03-01T00:15:06.661Z,93.20
2023-03-01T00:20:14.279Z,93.40
2023-03-01T00:25:20.014Z,93.60
2023-03-01T00:30:38.269Z,94.00
2023-03-01T00:35:54.927Z,94.50
2023-03-01T00:46:53.755Z,94.80
2023-03-01T00:52:11.904Z,95.30
2023-03-01T01:02:42.263Z,95.60
2023-03-01T01:07:52.846Z,96.00
2023-03-01T01:13:10.038Z,96.30
2023-03-01T01:18:14.772Z,96.60
2023-03-01T01:23:20.838Z,96.90
2023-03-01T01:28:40.940Z,97.20
2023-03-01T01:33:52.025Z,97.60
2023-03-01T01:39:24.721Z,97.90
2023-03-01T01:44:45.165Z,98.10
2023-03-01T01:49:57.590Z,98.50
2023-03-01T01:55:23.164Z,98.90
2023-03-01T02:00:35.084Z,99.00
2023-03-01T02:05:47.755Z,99.50
2023-03-01T02:10:57.028Z,99.90
2023-03-01T02:15:59.391Z,99.90
2023-03-01T02:21:18.240Z,99.90
2023-03-01T02:26:30.420Z,99.90
2023-03-01T02:31:44.989Z,99.90
2023-03-01T02:36:49.479Z,99.90
2023-03-01T02:42:00.497Z,99.90
2023-03-01T02:47:13.148Z,99.90
2023-03-01T02:52:41.076Z,99.90
2023-03-01T02:57:52.092Z,99.90
2023-03-01T03:02:58.310Z,99.90
2023-03-01T03:08:05.425Z,99.90
2023-03-01T03:13:12.749Z,99.90
2023-03-01T03:18:20.977Z,99.90
2023-03-01T03:23:27.584Z,99.90
2023-03-01T03:28:30.065Z,99.90
2023-03-01T03:33:35.615Z,99.90
2023-03-01T03:38:40.370Z,99.90
2023-03-01T03:49:09.992Z,99.90
2023-03-01T03:54:12.263Z,99.90
2023-03-01T05:31:42.804Z,99.90
2023-03-01T06:39:44.492Z,99.90
2023-03-01T06:44:46.996Z,99.90
2023-03-01T06:49:48.885Z,99.90
2023-03-01T06:54:50.770Z,99.90
2023-03-01T06:59:52.670Z,99.90
2023-03-01T07:04:54.512Z,99.90
2023-03-01T07:09:56.316Z,99.90
2023-03-01T07:14:58.170Z,99.90
2023-03-01T07:19:59.969Z,99.90
2023-03-01T07:25:01.742Z,99.90
2023-03-01T07:30:04.235Z,99.90
2023-03-01T07:35:06.590Z,99.90
2023-03-01T07:40:09.235Z,99.90
2023-03-01T07:45:11.678Z,99.90
2023-03-01T07:50:14.699Z,99.90
2023-03-01T07:55:17.348Z,99.90
2023-03-01T08:00:19.529Z,99.90
2023-03-01T08:05:23.197Z,99.90
2023-03-01T08:10:25.140Z,99.90
2023-03-01T08:15:27.040Z,99.90
2023-03-01T08:20:28.915Z,99.90
2023-03-01T08:25:30.720Z,99.90
2023-03-01T08:30:32.870Z,99.90
2023-03-01T08:35:34.822Z,99.90
2023-03-01T08:40:36.682Z,99.90
2023-03-01T08:45:38.626Z,99.90
2023-03-01T08:50:42.289Z,99.90
2023-03-01T08:55:44.290Z,99.90
2023-03-01T09:00:46.060Z,99.90
2023-03-01T09:05:47.989Z,99.90
2023-03-01T09:10:50.101Z,99.90
2023-03-01T09:15:52.242Z,99.90
2023-03-01T09:20:56.013Z,99.90
2023-03-01T09:25:57.865Z,99.90
2023-03-01T09:31:01.181Z,99.90
2023-03-01T09:36:08.885Z,99.90
2023-03-01T09:41:18.261Z,99.90
2023-03-01T09:46:20.171Z,99.90
2023-03-01T09:51:30.544Z,99.90
2023-03-01T09:56:47.333Z,99.90
2023-03-01T10:02:00.079Z,99.90
2023-03-01T10:07:11.107Z,99.90
2023-03-01T10:12:27.957Z,99.90
2023-03-01T10:17:40.746Z,99.90
2023-03-01T10:22:42.631Z,99.70
2023-03-01T10:27:53.201Z,99.50
2023-03-01T10:32:55.162Z,99.40
2023-03-01T10:38:10.255Z,99.40
2023-03-01T10:43:13.058Z,99.00
2023-03-01T10:48:20.277Z,98.60
2023-03-01T10:53:27.475Z,96.20
2023-03-01T10:58:30.013Z,96.40
2023-03-01T11:03:38.105Z,96.40
2023-03-01T11:08:47.266Z,95.40
2023-03-01T11:13:58.664Z,96.00
2023-03-01T11:19:11.032Z,96.30
2023-03-01T11:24:14.686Z,95.10
2023-03-01T11:29:29.727Z,93.50
2023-03-01T11:34:56.382Z,94.40
2023-03-01T11:40:15.214Z,93.80
2023-03-01T11:45:17.132Z,93.00
2023-03-01T11:50:41.222Z,93.60
2023-03-01T11:55:53.546Z,91.10
2023-03-01T12:01:02.654Z,91.30
2023-03-01T12:06:36.783Z,88.90
2023-03-01T12:11:38.963Z,88.60
2023-03-01T12:17:00.417Z,87.60
2023-03-01T12:22:14.149Z,86.20
2023-03-01T12:27:41.827Z,86.70
2023-03-01T12:33:01.618Z,84.50
2023-03-01T12:38:20.395Z,87.00
2023-03-01T12:43:52.150Z,86.80
2023-03-01T12:49:10.348Z,85.70
2023-03-01T12:54:38.830Z,85.90
2023-03-01T13:00:01.908Z,83.90
2023-03-01T13:05:25.594Z,85.50
2023-03-01T13:10:34.947Z,84.10
2023-03-01T13:15:37.630Z,77.50
2023-03-01T13:20:42.478Z,76.50
2023-03-01T13:25:59.848Z,73.20
2023-03-01T13:31:03.769Z,74.80
2023-03-01T13:36:08.262Z,70.80
2023-03-01T13:41:10.372Z,68.10
2023-03-01T13:46:16.973Z,64.10
2023-03-01T13:51:24.362Z,62.30
2023-03-01T13:56:30.509Z,61.60
2023-03-01T14:01:36.243Z,65.10
2023-03-01T14:06:38.374Z,61.20
2023-03-01T14:11:40.226Z,57.80
2023-03-01T14:17:03.124Z,59.10
2023-03-01T14:22:24.583Z,56.70
2023-03-01T14:27:36.258Z,58.20
2023-03-01T14:32:38.159Z,57.70
2023-03-01T14:37:41.417Z,59.70
2023-03-01T14:42:43.218Z,57.30
2023-03-01T14:47:45.919Z,54.70
2023-03-01T14:52:48.929Z,54.00
2023-03-01T14:57:51.954Z,53.70
2023-03-01T15:02:55.890Z,54.00
2023-03-01T15:07:58.774Z,52.80
2023-03-01T15:13:24.918Z,53.60
2023-03-01T15:18:27.894Z,55.30
2023-03-01T15:23:31.123Z,57.20
2023-03-01T15:28:35.888Z,56.90
2023-03-01T15:33:39.045Z,56.50
2023-03-01T15:38:59.029Z,55.50
2023-03-01T15:44:04.833Z,54.50
2023-03-01T15:49:27.354Z,53.00
2023-03-01T15:54:29.661Z,53.20
2023-03-01T15:59:31.469Z,54.20
2023-03-01T16:04:33.703Z,56.80
2023-03-01T16:09:35.587Z,55.60
2023-03-01T16:14:37.401Z,56.50
2023-03-01T16:19:39.534Z,57.20
2023-03-01T16:24:42.148Z,57.50
2023-03-01T16:29:44.310Z,57.20
2023-03-01T16:34:48.716Z,58.10
2023-03-01T16:39:52.145Z,59.50
2023-03-01T16:44:57.330Z,60.50
2023-03-01T16:49:59.216Z,61.20
2023-03-01T16:55:01.240Z,61.50
2023-03-01T17:00:05.985Z,62.40
2023-03-01T17:05:09.086Z,63.00
2023-03-01T17:10:11.555Z,63.90
2023-03-01T17:15:13.388Z,64.70
2023-03-01T17:20:15.267Z,65.20
2023-03-01T17:25:17.398Z,65.60
2023-03-01T17:30:19.373Z,67.10
2023-03-01T17:35:21.565Z,67.30
2023-03-01T17:40:23.418Z,67.50
2023-03-01T17:45:25.636Z,67.80
2023-03-01T17:50:27.687Z,68.50
2023-03-01T17:55:29.676Z,69.20
2023-03-01T18:00:31.670Z,69.10
2023-03-01T18:05:36.042Z,69.40
